RYR7TK LIPH-EGBB
Flight info
| Callsign | RYR7TK |
|---|---|
| Flight time | 1h 59m |
| Altitude | 34000 |
| Route | ROKIB DCT RESIA DCT ELMUR L613 HOC DCT LUL DCT RLP DCT ROTSI DCT KOTUN DCT NINAL DCT ABNUR DCT DIMAL DCT ALESO T420 HEMEL |
| Aircraft | B38M/M-SADE3FGILRWY/SB1 |
Departure
| Time | 2026-05-09 06:36 |
|---|---|
| Airport | Treviso Airport (LIPH) |
Arrival
| Time | 2026-05-09 08:36 |
|---|---|
| Airport | Birmingham Airport (EGBB) |
| Time | Latitude | Longitude | Altitude | Speed | Heading |
|---|---|---|---|---|---|
| 2026-05-09 06:05 | 45.65354 | 12.20321 | 65 ft | 0 kts | 339° |
| 2026-05-09 06:29 | 45.65346 | 12.20326 | 59 ft | 3 kts | 329° |
| 2026-05-09 06:29 | 45.65332 | 12.20341 | 57 ft | 3 kts | 341° |
| 2026-05-09 06:30 | 45.65315 | 12.20346 | 61 ft | 3 kts | 0° |
| 2026-05-09 06:30 | 45.65298 | 12.20340 | 59 ft | 3 kts | 37° |
| 2026-05-09 06:30 | 45.65286 | 12.20320 | 58 ft | 3 kts | 66° |
| 2026-05-09 06:30 | 45.65283 | 12.20310 | 56 ft | 1 kts | 69° |
| 2026-05-09 06:33 | 45.65285 | 12.20317 | 59 ft | 2 kts | 69° |
| 2026-05-09 06:33 | 45.65294 | 12.20351 | 61 ft | 5 kts | 68° |
| 2026-05-09 06:33 | 45.65310 | 12.20410 | 60 ft | 8 kts | 69° |
| 2026-05-09 06:34 | 45.65364 | 12.20617 | 59 ft | 12 kts | 69° |
| 2026-05-09 06:34 | 45.65373 | 12.20723 | 61 ft | 7 kts | 127° |
| 2026-05-09 06:34 | 45.65355 | 12.20735 | 59 ft | 4 kts | 158° |
| 2026-05-09 06:34 | 45.65317 | 12.20756 | 61 ft | 7 kts | 159° |
| 2026-05-09 06:35 | 45.65262 | 12.20786 | 60 ft | 10 kts | 159° |
| 2026-05-09 06:35 | 45.65208 | 12.20753 | 63 ft | 10 kts | 244° |
| 2026-05-09 06:35 | 45.65202 | 12.20734 | 62 ft | 3 kts | 249° |
| 2026-05-09 06:35 | 45.65101 | 12.20352 | 60 ft | 83 kts | 249° |
| 2026-05-09 06:36 | 45.64804 | 12.19225 | 64 ft | 155 kts | 250° |
| 2026-05-09 06:36 | 45.64396 | 12.17667 | 544 ft | 176 kts | 249° |
| 2026-05-09 06:36 | 45.63935 | 12.16067 | 1537 ft | 170 kts | 246° |
| 2026-05-09 06:36 | 45.63439 | 12.14466 | 2297 ft | 185 kts | 246° |
| 2026-05-09 06:37 | 45.62892 | 12.12693 | 2932 ft | 206 kts | 246° |
| 2026-05-09 06:37 | 45.62274 | 12.10692 | 3513 ft | 234 kts | 246° |
| 2026-05-09 06:37 | 45.61811 | 12.09245 | 3988 ft | 248 kts | 245° |
| 2026-05-09 06:37 | 45.61056 | 12.06928 | 4832 ft | 266 kts | 245° |
| 2026-05-09 06:38 | 45.60277 | 12.04527 | 5949 ft | 267 kts | 245° |
| 2026-05-09 06:38 | 45.59485 | 12.02087 | 6990 ft | 274 kts | 245° |
| 2026-05-09 06:38 | 45.58852 | 11.99509 | 8019 ft | 278 kts | 259° |
| 2026-05-09 06:38 | 45.58772 | 11.96744 | 9059 ft | 282 kts | 278° |
| 2026-05-09 06:39 | 45.59028 | 11.95181 | 9621 ft | 285 kts | 291° |
| 2026-05-09 06:40 | 45.59699 | 11.93467 | 10264 ft | 289 kts | 308° |
| 2026-05-09 06:41 | 45.61238 | 11.91518 | 10861 ft | 307 kts | 329° |
| 2026-05-09 06:41 | 45.63190 | 11.90111 | 11508 ft | 321 kts | 333° |
| 2026-05-09 06:41 | 45.65224 | 11.88702 | 12292 ft | 328 kts | 333° |
| 2026-05-09 06:41 | 45.67287 | 11.87294 | 13247 ft | 331 kts | 333° |
| 2026-05-09 06:42 | 45.69386 | 11.85877 | 14094 ft | 335 kts | 334° |
| 2026-05-09 06:42 | 45.71513 | 11.84450 | 14873 ft | 339 kts | 333° |
| 2026-05-09 06:42 | 45.73649 | 11.82985 | 15641 ft | 343 kts | 333° |
| 2026-05-09 06:42 | 45.75813 | 11.81490 | 16396 ft | 347 kts | 333° |
| 2026-05-09 06:43 | 45.77999 | 11.79982 | 17144 ft | 351 kts | 332° |
| 2026-05-09 06:43 | 45.80075 | 11.78550 | 17835 ft | 354 kts | 332° |
| 2026-05-09 06:43 | 45.81913 | 11.77281 | 18416 ft | 358 kts | 332° |
| 2026-05-09 06:43 | 45.84175 | 11.75718 | 19047 ft | 360 kts | 332° |
| 2026-05-09 06:44 | 45.86440 | 11.74152 | 19691 ft | 363 kts | 332° |
| 2026-05-09 06:44 | 45.88719 | 11.72575 | 20347 ft | 366 kts | 331° |
| 2026-05-09 06:44 | 45.91017 | 11.70976 | 20973 ft | 368 kts | 329° |
| 2026-05-09 06:44 | 45.93071 | 11.68837 | 21544 ft | 364 kts | 310° |
| 2026-05-09 06:45 | 45.94502 | 11.65883 | 22163 ft | 362 kts | 295° |
| 2026-05-09 06:45 | 45.95678 | 11.62664 | 22729 ft | 365 kts | 295° |
| 2026-05-09 06:45 | 45.96833 | 11.59401 | 23354 ft | 367 kts | 294° |
| 2026-05-09 06:45 | 45.97972 | 11.56118 | 23903 ft | 369 kts | 294° |
| 2026-05-09 06:46 | 45.99109 | 11.52794 | 24363 ft | 371 kts | 294° |
| 2026-05-09 06:46 | 46.00245 | 11.49446 | 24799 ft | 374 kts | 293° |
| 2026-05-09 06:46 | 46.01387 | 11.46062 | 25268 ft | 377 kts | 293° |
| 2026-05-09 06:46 | 46.02535 | 11.42652 | 25697 ft | 380 kts | 293° |
| 2026-05-09 06:47 | 46.03689 | 11.39218 | 26153 ft | 382 kts | 293° |
| 2026-05-09 06:47 | 46.04850 | 11.35759 | 26572 ft | 385 kts | 293° |
| 2026-05-09 06:47 | 46.06018 | 11.32275 | 26999 ft | 388 kts | 293° |
| 2026-05-09 06:47 | 46.07192 | 11.28770 | 27425 ft | 391 kts | 293° |
| 2026-05-09 06:48 | 46.08376 | 11.25227 | 27841 ft | 393 kts | 293° |
| 2026-05-09 06:48 | 46.09564 | 11.21667 | 28246 ft | 396 kts | 293° |
| 2026-05-09 06:48 | 46.10760 | 11.18080 | 28660 ft | 399 kts | 293° |
| 2026-05-09 06:48 | 46.11964 | 11.14463 | 29059 ft | 401 kts | 293° |
| 2026-05-09 06:49 | 46.13172 | 11.10829 | 29453 ft | 404 kts | 293° |
| 2026-05-09 06:49 | 46.14373 | 11.07210 | 29823 ft | 406 kts | 293° |
| 2026-05-09 06:49 | 46.15613 | 11.03472 | 30154 ft | 409 kts | 293° |
| 2026-05-09 06:49 | 46.16844 | 10.99751 | 30507 ft | 411 kts | 293° |
| 2026-05-09 06:50 | 46.18076 | 10.96024 | 30794 ft | 414 kts | 293° |
| 2026-05-09 06:50 | 46.19315 | 10.92270 | 31099 ft | 416 kts | 293° |
| 2026-05-09 06:50 | 46.20562 | 10.88489 | 31406 ft | 417 kts | 293° |
| 2026-05-09 06:50 | 46.21808 | 10.84703 | 31793 ft | 417 kts | 293° |
| 2026-05-09 06:51 | 46.23050 | 10.80923 | 32226 ft | 416 kts | 293° |
| 2026-05-09 06:51 | 46.24289 | 10.77147 | 32634 ft | 415 kts | 293° |
| 2026-05-09 06:51 | 46.25523 | 10.73382 | 33052 ft | 414 kts | 293° |
| 2026-05-09 06:51 | 46.26753 | 10.69624 | 33436 ft | 414 kts | 293° |
| 2026-05-09 06:52 | 46.27979 | 10.65870 | 33850 ft | 413 kts | 293° |
| 2026-05-09 06:52 | 46.29206 | 10.62111 | 34103 ft | 414 kts | 293° |
| 2026-05-09 06:52 | 46.31631 | 10.54663 | 34108 ft | 411 kts | 293° |
| 2026-05-09 06:53 | 46.34058 | 10.47185 | 34099 ft | 411 kts | 293° |
| 2026-05-09 06:53 | 46.36482 | 10.39699 | 34081 ft | 411 kts | 293° |
| 2026-05-09 06:54 | 46.38903 | 10.32195 | 34072 ft | 411 kts | 293° |
| 2026-05-09 06:54 | 46.41317 | 10.24693 | 34100 ft | 412 kts | 293° |
| 2026-05-09 06:55 | 46.43734 | 10.17165 | 34094 ft | 412 kts | 293° |
| 2026-05-09 06:55 | 46.46143 | 10.09640 | 34113 ft | 412 kts | 293° |
| 2026-05-09 06:56 | 46.49028 | 10.02490 | 34115 ft | 415 kts | 310° |
| 2026-05-09 06:56 | 46.52843 | 9.96150 | 34109 ft | 417 kts | 308° |
| 2026-05-09 06:57 | 46.56668 | 9.89814 | 34108 ft | 417 kts | 308° |
| 2026-05-09 06:57 | 46.60501 | 9.83485 | 34106 ft | 417 kts | 309° |
| 2026-05-09 06:58 | 46.64331 | 9.77150 | 34101 ft | 417 kts | 309° |
| 2026-05-09 06:58 | 46.68155 | 9.70810 | 34091 ft | 417 kts | 309° |
| 2026-05-09 06:59 | 46.71977 | 9.64458 | 34070 ft | 416 kts | 309° |
| 2026-05-09 06:59 | 46.75794 | 9.58101 | 34060 ft | 416 kts | 309° |
| 2026-05-09 07:00 | 46.79599 | 9.51748 | 34024 ft | 416 kts | 309° |
| 2026-05-09 07:00 | 46.83406 | 9.45377 | 34036 ft | 416 kts | 309° |
| 2026-05-09 07:01 | 46.87202 | 9.39009 | 34026 ft | 416 kts | 309° |
| 2026-05-09 07:01 | 46.90996 | 9.32631 | 34034 ft | 415 kts | 309° |
| 2026-05-09 07:02 | 46.94782 | 9.26249 | 34041 ft | 415 kts | 309° |
| 2026-05-09 07:02 | 46.96647 | 9.23102 | 34026 ft | 415 kts | 309° |
| 2026-05-09 07:03 | 47.00426 | 9.16711 | 34033 ft | 414 kts | 309° |
| 2026-05-09 07:03 | 47.04194 | 9.10323 | 34034 ft | 415 kts | 309° |
| 2026-05-09 07:04 | 47.07310 | 9.05029 | 34020 ft | 414 kts | 309° |
| 2026-05-09 07:04 | 47.11102 | 8.98575 | 34016 ft | 415 kts | 309° |
| 2026-05-09 07:05 | 47.14842 | 8.92131 | 34026 ft | 413 kts | 304° |
| 2026-05-09 07:05 | 47.16180 | 8.88450 | 34031 ft | 408 kts | 289° |
| 2026-05-09 07:05 | 47.17201 | 8.84548 | 34031 ft | 410 kts | 290° |
| 2026-05-09 07:06 | 47.19231 | 8.76831 | 34039 ft | 411 kts | 290° |
| 2026-05-09 07:06 | 47.21240 | 8.68968 | 34041 ft | 411 kts | 289° |
| 2026-05-09 07:07 | 47.23232 | 8.61096 | 34047 ft | 411 kts | 289° |
| 2026-05-09 07:07 | 47.25224 | 8.53199 | 34044 ft | 412 kts | 289° |
| 2026-05-09 07:08 | 47.27220 | 8.45283 | 34043 ft | 412 kts | 289° |
| 2026-05-09 07:08 | 47.29212 | 8.37362 | 34039 ft | 413 kts | 289° |
| 2026-05-09 07:09 | 47.31195 | 8.29430 | 34036 ft | 413 kts | 289° |
| 2026-05-09 07:09 | 47.33176 | 8.21470 | 34036 ft | 414 kts | 289° |
| 2026-05-09 07:10 | 47.35154 | 8.13493 | 34028 ft | 414 kts | 289° |
| 2026-05-09 07:10 | 47.37130 | 8.05497 | 34026 ft | 415 kts | 289° |
| 2026-05-09 07:11 | 47.39103 | 7.97484 | 34024 ft | 416 kts | 289° |
| 2026-05-09 07:11 | 47.41073 | 7.89456 | 34029 ft | 417 kts | 289° |
| 2026-05-09 07:12 | 47.42377 | 7.84124 | 34028 ft | 417 kts | 289° |
| 2026-05-09 07:12 | 47.43978 | 7.77566 | 34025 ft | 417 kts | 289° |
| 2026-05-09 07:13 | 47.45833 | 7.69941 | 34023 ft | 417 kts | 289° |
| 2026-05-09 07:13 | 47.47364 | 7.61735 | 34023 ft | 418 kts | 283° |
| 2026-05-09 07:14 | 47.48736 | 7.53378 | 34025 ft | 418 kts | 284° |
| 2026-05-09 07:14 | 47.50134 | 7.45023 | 34026 ft | 419 kts | 284° |
| 2026-05-09 07:15 | 47.51537 | 7.36625 | 34024 ft | 419 kts | 284° |
| 2026-05-09 07:15 | 47.52924 | 7.28285 | 34025 ft | 420 kts | 284° |
| 2026-05-09 07:16 | 47.54315 | 7.19881 | 34024 ft | 421 kts | 284° |
| 2026-05-09 07:16 | 47.55705 | 7.11443 | 34025 ft | 421 kts | 284° |
| 2026-05-09 07:17 | 47.57089 | 7.02992 | 34026 ft | 422 kts | 284° |
| 2026-05-09 07:17 | 47.58460 | 6.94582 | 34027 ft | 423 kts | 283° |
| 2026-05-09 07:18 | 47.59839 | 6.86081 | 34026 ft | 424 kts | 283° |
| 2026-05-09 07:18 | 47.61205 | 6.77621 | 34027 ft | 424 kts | 283° |
| 2026-05-09 07:19 | 47.62574 | 6.69094 | 34024 ft | 425 kts | 283° |
| 2026-05-09 07:19 | 47.63935 | 6.60574 | 34020 ft | 426 kts | 283° |
| 2026-05-09 07:20 | 47.65298 | 6.51999 | 34001 ft | 426 kts | 283° |
| 2026-05-09 07:20 | 47.66644 | 6.43482 | 34000 ft | 426 kts | 283° |
| 2026-05-09 07:21 | 47.67998 | 6.34889 | 33999 ft | 427 kts | 283° |
| 2026-05-09 07:21 | 47.69576 | 6.26412 | 34007 ft | 427 kts | 288° |
| 2026-05-09 07:22 | 47.71395 | 6.18017 | 34002 ft | 427 kts | 288° |
| 2026-05-09 07:22 | 47.72881 | 6.10996 | 34004 ft | 428 kts | 287° |
| 2026-05-09 07:23 | 47.74656 | 6.02554 | 34005 ft | 428 kts | 287° |
| 2026-05-09 07:23 | 47.76429 | 5.94080 | 34008 ft | 429 kts | 287° |
| 2026-05-09 07:24 | 47.78184 | 5.85657 | 34006 ft | 430 kts | 287° |
| 2026-05-09 07:24 | 47.79951 | 5.77143 | 34012 ft | 431 kts | 287° |
| 2026-05-09 07:25 | 47.81716 | 5.68600 | 34005 ft | 432 kts | 287° |
| 2026-05-09 07:25 | 47.83465 | 5.60103 | 34005 ft | 432 kts | 287° |
| 2026-05-09 07:26 | 47.85220 | 5.51533 | 34001 ft | 433 kts | 287° |
| 2026-05-09 07:26 | 47.86977 | 5.42919 | 34006 ft | 434 kts | 286° |
| 2026-05-09 07:27 | 47.88729 | 5.34300 | 33999 ft | 434 kts | 286° |
| 2026-05-09 07:27 | 47.90666 | 5.25823 | 33977 ft | 435 kts | 299° |
| 2026-05-09 07:28 | 47.92443 | 5.22192 | 34002 ft | 436 kts | 311° |
| 2026-05-09 07:28 | 47.94467 | 5.18762 | 33987 ft | 443 kts | 311° |
| 2026-05-09 07:28 | 47.98626 | 5.11782 | 33987 ft | 456 kts | 311° |
| 2026-05-09 07:29 | 48.02912 | 5.04685 | 33989 ft | 461 kts | 311° |
| 2026-05-09 07:29 | 48.07193 | 4.97596 | 33990 ft | 461 kts | 311° |
| 2026-05-09 07:30 | 48.11481 | 4.90476 | 33987 ft | 461 kts | 311° |
| 2026-05-09 07:30 | 48.15780 | 4.83318 | 33990 ft | 461 kts | 311° |
| 2026-05-09 07:31 | 48.20068 | 4.76159 | 33985 ft | 461 kts | 311° |
| 2026-05-09 07:31 | 48.24354 | 4.68984 | 33985 ft | 461 kts | 311° |
| 2026-05-09 07:32 | 48.28606 | 4.61849 | 33983 ft | 461 kts | 311° |
| 2026-05-09 07:32 | 48.32886 | 4.54644 | 33978 ft | 461 kts | 311° |
| 2026-05-09 07:33 | 48.39293 | 4.43823 | 33983 ft | 462 kts | 311° |
| 2026-05-09 07:34 | 48.43575 | 4.36567 | 33984 ft | 463 kts | 311° |
| 2026-05-09 07:34 | 48.47826 | 4.29342 | 33978 ft | 464 kts | 311° |
| 2026-05-09 07:35 | 48.52100 | 4.22059 | 33981 ft | 464 kts | 311° |
| 2026-05-09 07:35 | 48.56383 | 4.14741 | 33998 ft | 464 kts | 311° |
| 2026-05-09 07:36 | 48.60653 | 4.07423 | 34000 ft | 464 kts | 311° |
| 2026-05-09 07:36 | 48.64897 | 4.00132 | 33999 ft | 465 kts | 311° |
| 2026-05-09 07:37 | 48.69169 | 3.92772 | 33995 ft | 465 kts | 310° |
| 2026-05-09 07:37 | 48.73574 | 3.85556 | 34001 ft | 466 kts | 316° |
| 2026-05-09 07:38 | 48.78249 | 3.78726 | 33994 ft | 466 kts | 315° |
| 2026-05-09 07:38 | 48.82878 | 3.71832 | 33997 ft | 467 kts | 315° |
| 2026-05-09 07:39 | 48.87511 | 3.64900 | 33995 ft | 467 kts | 315° |
| 2026-05-09 07:39 | 48.92108 | 3.58001 | 33993 ft | 467 kts | 315° |
| 2026-05-09 07:40 | 48.96746 | 3.51023 | 33989 ft | 468 kts | 314° |
| 2026-05-09 07:40 | 49.01373 | 3.44040 | 33991 ft | 468 kts | 314° |
| 2026-05-09 07:41 | 49.05976 | 3.37075 | 33997 ft | 469 kts | 314° |
| 2026-05-09 07:41 | 49.10606 | 3.30051 | 33990 ft | 469 kts | 314° |
| 2026-05-09 07:42 | 49.15239 | 3.23002 | 33992 ft | 469 kts | 314° |
| 2026-05-09 07:42 | 49.19836 | 3.15988 | 33989 ft | 469 kts | 314° |
| 2026-05-09 07:43 | 49.24455 | 3.08921 | 33995 ft | 470 kts | 314° |
| 2026-05-09 07:43 | 49.29075 | 3.01831 | 33986 ft | 470 kts | 314° |
| 2026-05-09 07:44 | 49.33696 | 2.94722 | 33995 ft | 470 kts | 314° |
| 2026-05-09 07:44 | 49.38284 | 2.87642 | 33981 ft | 470 kts | 314° |
| 2026-05-09 07:45 | 49.42896 | 2.80506 | 33995 ft | 471 kts | 314° |
| 2026-05-09 07:45 | 49.47517 | 2.73335 | 33983 ft | 471 kts | 314° |
| 2026-05-09 07:46 | 49.52131 | 2.66156 | 33995 ft | 472 kts | 313° |
| 2026-05-09 07:46 | 49.56744 | 2.58961 | 33991 ft | 472 kts | 313° |
| 2026-05-09 07:47 | 49.61434 | 2.51982 | 33992 ft | 457 kts | 322° |
| 2026-05-09 07:47 | 49.66422 | 2.46149 | 34002 ft | 450 kts | 322° |
| 2026-05-09 07:48 | 49.71410 | 2.40286 | 34005 ft | 450 kts | 322° |
| 2026-05-09 07:48 | 49.76398 | 2.34414 | 34005 ft | 450 kts | 322° |
| 2026-05-09 07:49 | 49.81391 | 2.28520 | 34007 ft | 451 kts | 321° |
| 2026-05-09 07:49 | 49.86349 | 2.22653 | 34010 ft | 451 kts | 321° |
| 2026-05-09 07:50 | 49.91342 | 2.16728 | 34008 ft | 451 kts | 321° |
| 2026-05-09 07:50 | 49.96324 | 2.10800 | 34008 ft | 451 kts | 321° |
| 2026-05-09 07:51 | 50.01316 | 2.04845 | 34011 ft | 451 kts | 321° |
| 2026-05-09 07:51 | 50.06297 | 1.98886 | 34016 ft | 452 kts | 321° |
| 2026-05-09 07:52 | 50.11278 | 1.92912 | 34014 ft | 452 kts | 321° |
| 2026-05-09 07:52 | 50.16230 | 1.86958 | 34017 ft | 452 kts | 320° |
| 2026-05-09 07:53 | 50.20806 | 1.80277 | 34021 ft | 450 kts | 314° |
| 2026-05-09 07:53 | 50.25299 | 1.73446 | 34011 ft | 450 kts | 314° |
| 2026-05-09 07:54 | 50.29764 | 1.66627 | 34011 ft | 451 kts | 314° |
| 2026-05-09 07:54 | 50.34249 | 1.59758 | 34007 ft | 451 kts | 314° |
| 2026-05-09 07:55 | 50.38750 | 1.52846 | 34004 ft | 452 kts | 314° |
| 2026-05-09 07:55 | 50.43208 | 1.45979 | 34007 ft | 452 kts | 314° |
| 2026-05-09 07:56 | 50.47700 | 1.39041 | 34007 ft | 452 kts | 313° |
| 2026-05-09 07:56 | 50.52020 | 1.31882 | 34014 ft | 451 kts | 311° |
| 2026-05-09 07:57 | 50.56319 | 1.24654 | 34020 ft | 452 kts | 311° |
| 2026-05-09 07:57 | 50.60751 | 1.17628 | 34030 ft | 453 kts | 313° |
| 2026-05-09 07:58 | 50.65171 | 1.10634 | 34036 ft | 452 kts | 313° |
| 2026-05-09 07:58 | 50.69607 | 1.03587 | 34042 ft | 453 kts | 313° |
| 2026-05-09 07:59 | 50.74050 | 0.96507 | 34051 ft | 452 kts | 313° |
| 2026-05-09 07:59 | 50.78447 | 0.89480 | 34050 ft | 453 kts | 312° |
| 2026-05-09 08:00 | 50.82884 | 0.82369 | 34052 ft | 453 kts | 312° |
| 2026-05-09 08:00 | 50.87310 | 0.75268 | 34049 ft | 453 kts | 312° |
| 2026-05-09 08:01 | 50.91742 | 0.68148 | 34053 ft | 453 kts | 312° |
| 2026-05-09 08:01 | 50.96149 | 0.61045 | 34055 ft | 454 kts | 312° |
| 2026-05-09 08:02 | 51.00584 | 0.53879 | 34179 ft | 454 kts | 312° |
| 2026-05-09 08:02 | 51.04983 | 0.46749 | 34219 ft | 454 kts | 312° |
| 2026-05-09 08:03 | 51.09070 | 0.40436 | 34244 ft | 455 kts | 314° |
| 2026-05-09 08:03 | 51.13646 | 0.33452 | 34243 ft | 454 kts | 314° |
| 2026-05-09 08:04 | 51.18133 | 0.26566 | 33848 ft | 440 kts | 313° |
| 2026-05-09 08:04 | 51.20339 | 0.23174 | 33284 ft | 438 kts | 313° |
| 2026-05-09 08:04 | 51.22527 | 0.19805 | 32758 ft | 436 kts | 313° |
| 2026-05-09 08:04 | 51.24608 | 0.16596 | 32196 ft | 433 kts | 313° |
| 2026-05-09 08:05 | 51.26732 | 0.13317 | 31748 ft | 430 kts | 313° |
| 2026-05-09 08:05 | 51.28872 | 0.10006 | 31293 ft | 427 kts | 313° |
| 2026-05-09 08:05 | 51.30994 | 0.06722 | 30835 ft | 425 kts | 313° |
| 2026-05-09 08:05 | 51.33165 | 0.03493 | 30351 ft | 425 kts | 320° |
| 2026-05-09 08:06 | 51.35695 | 0.01017 | 29806 ft | 426 kts | 329° |
| 2026-05-09 08:06 | 51.38235 | -0.01364 | 29385 ft | 421 kts | 327° |
| 2026-05-09 08:06 | 51.40742 | -0.03758 | 28970 ft | 417 kts | 327° |
| 2026-05-09 08:06 | 51.43225 | -0.06122 | 28502 ft | 413 kts | 327° |
| 2026-05-09 08:07 | 51.45699 | -0.08475 | 28064 ft | 410 kts | 327° |
| 2026-05-09 08:07 | 51.48137 | -0.10796 | 27639 ft | 407 kts | 327° |
| 2026-05-09 08:07 | 51.50565 | -0.13109 | 27223 ft | 402 kts | 327° |
| 2026-05-09 08:07 | 51.52954 | -0.15389 | 26796 ft | 397 kts | 327° |
| 2026-05-09 08:08 | 51.55315 | -0.17643 | 26401 ft | 392 kts | 327° |
| 2026-05-09 08:08 | 51.57619 | -0.19848 | 25993 ft | 388 kts | 327° |
| 2026-05-09 08:08 | 51.59928 | -0.22060 | 25660 ft | 384 kts | 327° |
| 2026-05-09 08:08 | 51.62211 | -0.24248 | 25273 ft | 380 kts | 327° |
| 2026-05-09 08:09 | 51.64474 | -0.26420 | 24887 ft | 376 kts | 327° |
| 2026-05-09 08:09 | 51.66712 | -0.28572 | 24480 ft | 373 kts | 327° |
| 2026-05-09 08:09 | 51.68943 | -0.30719 | 24054 ft | 372 kts | 327° |
| 2026-05-09 08:09 | 51.71151 | -0.32847 | 23680 ft | 368 kts | 326° |
| 2026-05-09 08:10 | 51.73315 | -0.34935 | 23267 ft | 364 kts | 327° |
| 2026-05-09 08:10 | 51.75477 | -0.37022 | 22876 ft | 360 kts | 327° |
| 2026-05-09 08:10 | 51.77612 | -0.39087 | 22510 ft | 355 kts | 327° |
| 2026-05-09 08:10 | 51.79009 | -0.40439 | 22243 ft | 351 kts | 327° |
| 2026-05-09 08:11 | 51.81090 | -0.42455 | 21949 ft | 345 kts | 327° |
| 2026-05-09 08:11 | 51.83155 | -0.44458 | 21657 ft | 345 kts | 327° |
| 2026-05-09 08:11 | 51.85878 | -0.47101 | 21301 ft | 343 kts | 327° |
| 2026-05-09 08:11 | 51.87260 | -0.48443 | 21098 ft | 342 kts | 327° |
| 2026-05-09 08:12 | 51.91289 | -0.52365 | 20503 ft | 337 kts | 327° |
| 2026-05-09 08:12 | 51.93291 | -0.54316 | 20205 ft | 335 kts | 327° |
| 2026-05-09 08:12 | 51.95280 | -0.56258 | 19875 ft | 332 kts | 327° |
| 2026-05-09 08:13 | 51.97255 | -0.58187 | 19589 ft | 330 kts | 327° |
| 2026-05-09 08:13 | 51.99215 | -0.60103 | 19316 ft | 327 kts | 327° |
| 2026-05-09 08:13 | 52.01160 | -0.62007 | 19031 ft | 325 kts | 328° |
| 2026-05-09 08:13 | 52.03091 | -0.63899 | 18745 ft | 323 kts | 327° |
| 2026-05-09 08:14 | 52.04992 | -0.65763 | 18465 ft | 321 kts | 328° |
| 2026-05-09 08:14 | 52.06902 | -0.67638 | 18151 ft | 319 kts | 327° |
| 2026-05-09 08:14 | 52.08794 | -0.69499 | 17852 ft | 317 kts | 327° |
| 2026-05-09 08:14 | 52.10678 | -0.71353 | 17563 ft | 315 kts | 327° |
| 2026-05-09 08:15 | 52.12553 | -0.73198 | 17292 ft | 313 kts | 327° |
| 2026-05-09 08:15 | 52.14411 | -0.75029 | 17026 ft | 312 kts | 327° |
| 2026-05-09 08:15 | 52.16258 | -0.76851 | 16754 ft | 310 kts | 327° |
| 2026-05-09 08:15 | 52.18082 | -0.78653 | 16477 ft | 308 kts | 327° |
| 2026-05-09 08:16 | 52.19903 | -0.80455 | 16205 ft | 306 kts | 327° |
| 2026-05-09 08:16 | 52.21725 | -0.82257 | 15948 ft | 305 kts | 327° |
| 2026-05-09 08:16 | 52.23470 | -0.84187 | 15635 ft | 301 kts | 314° |
| 2026-05-09 08:16 | 52.24651 | -0.86937 | 15378 ft | 295 kts | 291° |
| 2026-05-09 08:17 | 52.25249 | -0.90131 | 15152 ft | 295 kts | 284° |
| 2026-05-09 08:17 | 52.25765 | -0.93371 | 14889 ft | 294 kts | 283° |
| 2026-05-09 08:17 | 52.26251 | -0.96612 | 14627 ft | 293 kts | 282° |
| 2026-05-09 08:17 | 52.26717 | -0.99837 | 14365 ft | 291 kts | 282° |
| 2026-05-09 08:18 | 52.27172 | -1.03052 | 14116 ft | 290 kts | 282° |
| 2026-05-09 08:18 | 52.27613 | -1.06228 | 13845 ft | 288 kts | 282° |
| 2026-05-09 08:18 | 52.28052 | -1.09425 | 13575 ft | 287 kts | 282° |
| 2026-05-09 08:18 | 52.28486 | -1.12604 | 13310 ft | 286 kts | 282° |
| 2026-05-09 08:19 | 52.28919 | -1.15781 | 13058 ft | 286 kts | 282° |
| 2026-05-09 08:19 | 52.29349 | -1.18949 | 12820 ft | 285 kts | 282° |
| 2026-05-09 08:19 | 52.29772 | -1.22080 | 12560 ft | 277 kts | 282° |
| 2026-05-09 08:19 | 52.30179 | -1.25088 | 12325 ft | 264 kts | 281° |
| 2026-05-09 08:20 | 52.30566 | -1.27959 | 12099 ft | 257 kts | 281° |
| 2026-05-09 08:20 | 52.30949 | -1.30811 | 11892 ft | 257 kts | 281° |
| 2026-05-09 08:20 | 52.31333 | -1.33667 | 11669 ft | 256 kts | 281° |
| 2026-05-09 08:20 | 52.31707 | -1.36466 | 11405 ft | 253 kts | 281° |
| 2026-05-09 08:21 | 52.32078 | -1.39243 | 11164 ft | 247 kts | 281° |
| 2026-05-09 08:21 | 52.32441 | -1.41965 | 10957 ft | 244 kts | 281° |
| 2026-05-09 08:21 | 52.32801 | -1.44665 | 10750 ft | 243 kts | 281° |
| 2026-05-09 08:21 | 52.33162 | -1.47378 | 10542 ft | 243 kts | 281° |
| 2026-05-09 08:22 | 52.33521 | -1.50082 | 10337 ft | 243 kts | 281° |
| 2026-05-09 08:22 | 52.33878 | -1.52777 | 10119 ft | 243 kts | 281° |
| 2026-05-09 08:22 | 52.34234 | -1.55472 | 9887 ft | 242 kts | 281° |
| 2026-05-09 08:22 | 52.34590 | -1.58167 | 9652 ft | 242 kts | 281° |
| 2026-05-09 08:23 | 52.34942 | -1.60851 | 9446 ft | 241 kts | 281° |
| 2026-05-09 08:23 | 52.35295 | -1.63528 | 9235 ft | 241 kts | 281° |
| 2026-05-09 08:23 | 52.35617 | -1.66206 | 9075 ft | 239 kts | 273° |
| 2026-05-09 08:23 | 52.35582 | -1.68904 | 8969 ft | 238 kts | 265° |
| 2026-05-09 08:24 | 52.35479 | -1.71613 | 8891 ft | 239 kts | 265° |
| 2026-05-09 08:24 | 52.35378 | -1.74329 | 8824 ft | 239 kts | 265° |
| 2026-05-09 08:24 | 52.35277 | -1.77040 | 8731 ft | 238 kts | 265° |
| 2026-05-09 08:24 | 52.35216 | -1.79699 | 8587 ft | 239 kts | 273° |
| 2026-05-09 08:25 | 52.35625 | -1.82326 | 8247 ft | 239 kts | 296° |
| 2026-05-09 08:25 | 52.36471 | -1.84658 | 7824 ft | 239 kts | 300° |
| 2026-05-09 08:25 | 52.37305 | -1.86981 | 7536 ft | 232 kts | 300° |
| 2026-05-09 08:25 | 52.38095 | -1.89219 | 7299 ft | 222 kts | 299° |
| 2026-05-09 08:26 | 52.39051 | -1.91134 | 7031 ft | 215 kts | 322° |
| 2026-05-09 08:26 | 52.40271 | -1.92540 | 6647 ft | 215 kts | 327° |
| 2026-05-09 08:26 | 52.41532 | -1.93892 | 6184 ft | 217 kts | 327° |
| 2026-05-09 08:26 | 52.42803 | -1.95262 | 5771 ft | 221 kts | 327° |
| 2026-05-09 08:27 | 52.44091 | -1.96657 | 5427 ft | 222 kts | 327° |
| 2026-05-09 08:27 | 52.45371 | -1.98051 | 5139 ft | 217 kts | 327° |
| 2026-05-09 08:27 | 52.46593 | -1.99396 | 4886 ft | 206 kts | 328° |
| 2026-05-09 08:27 | 52.47828 | -2.00357 | 4679 ft | 195 kts | 345° |
| 2026-05-09 08:28 | 52.49153 | -2.00861 | 4499 ft | 195 kts | 350° |
| 2026-05-09 08:28 | 52.50482 | -2.01310 | 4385 ft | 195 kts | 350° |
| 2026-05-09 08:28 | 52.51814 | -2.01758 | 4192 ft | 196 kts | 350° |
| 2026-05-09 08:28 | 52.53150 | -2.02125 | 3929 ft | 194 kts | 0° |
| 2026-05-09 08:29 | 52.54483 | -2.01959 | 3674 ft | 191 kts | 9° |
| 2026-05-09 08:29 | 52.55797 | -2.01657 | 3413 ft | 190 kts | 10° |
| 2026-05-09 08:29 | 52.57103 | -2.01330 | 3157 ft | 187 kts | 12° |
| 2026-05-09 08:29 | 52.58281 | -2.00620 | 3024 ft | 175 kts | 28° |
| 2026-05-09 08:30 | 52.59341 | -1.99697 | 2808 ft | 171 kts | 30° |
| 2026-05-09 08:30 | 52.60266 | -1.98567 | 2666 ft | 164 kts | 49° |
| 2026-05-09 08:30 | 52.61027 | -1.97177 | 2549 ft | 164 kts | 50° |
| 2026-05-09 08:30 | 52.61513 | -1.95542 | 2401 ft | 160 kts | 93° |
| 2026-05-09 08:31 | 52.61115 | -1.93933 | 2586 ft | 155 kts | 122° |
| 2026-05-09 08:31 | 52.60578 | -1.92332 | 2561 ft | 161 kts | 121° |
| 2026-05-09 08:31 | 52.59831 | -1.90975 | 2431 ft | 160 kts | 141° |
| 2026-05-09 08:31 | 52.58920 | -1.89907 | 2487 ft | 162 kts | 144° |
| 2026-05-09 08:32 | 52.57992 | -1.88870 | 2490 ft | 161 kts | 144° |
| 2026-05-09 08:32 | 52.57062 | -1.87832 | 2486 ft | 162 kts | 144° |
| 2026-05-09 08:32 | 52.55324 | -1.85889 | 2465 ft | 144 kts | 144° |
| 2026-05-09 08:33 | 52.54507 | -1.84960 | 2267 ft | 141 kts | 144° |
| 2026-05-09 08:33 | 52.53695 | -1.84059 | 2102 ft | 141 kts | 144° |
| 2026-05-09 08:33 | 52.52886 | -1.83158 | 1908 ft | 140 kts | 144° |
| 2026-05-09 08:33 | 52.52080 | -1.82259 | 1733 ft | 140 kts | 143° |
| 2026-05-09 08:34 | 52.51276 | -1.81359 | 1555 ft | 140 kts | 145° |
| 2026-05-09 08:34 | 52.50470 | -1.80467 | 1339 ft | 139 kts | 143° |
| 2026-05-09 08:34 | 52.49671 | -1.79558 | 1094 ft | 139 kts | 144° |
| 2026-05-09 08:34 | 52.48861 | -1.78702 | 987 ft | 139 kts | 145° |
| 2026-05-09 08:35 | 52.48068 | -1.77798 | 769 ft | 138 kts | 144° |
| 2026-05-09 08:35 | 52.47272 | -1.76912 | 567 ft | 138 kts | 144° |
| 2026-05-09 08:35 | 52.46482 | -1.76027 | 393 ft | 138 kts | 144° |
| 2026-05-09 08:35 | 52.45726 | -1.75176 | 325 ft | 118 kts | 145° |
| 2026-05-09 08:36 | 52.45224 | -1.74620 | 328 ft | 54 kts | 146° |
| 2026-05-09 08:36 | 52.44974 | -1.74344 | 328 ft | 24 kts | 143° |
| 2026-05-09 08:36 | 52.44957 | -1.74179 | 328 ft | 11 kts | 76° |
| 2026-05-09 08:36 | 52.44975 | -1.74058 | 328 ft | 14 kts | 76° |
| 2026-05-09 08:37 | 52.45012 | -1.73887 | 326 ft | 17 kts | 56° |
| 2026-05-09 08:37 | 52.45089 | -1.73771 | 325 ft | 7 kts | 351° |
| 2026-05-09 08:37 | 52.45137 | -1.73815 | 326 ft | 9 kts | 326° |
| 2026-05-09 08:37 | 52.45199 | -1.73884 | 326 ft | 12 kts | 326° |
| 2026-05-09 08:38 | 52.45277 | -1.73967 | 324 ft | 12 kts | 333° |
| 2026-05-09 08:38 | 52.45332 | -1.73930 | 326 ft | 0 kts | 54° |
| 2026-05-09 08:38 | 52.45344 | -1.73883 | 323 ft | 9 kts | 86° |
| 2026-05-09 08:38 | 52.45325 | -1.73833 | 324 ft | 3 kts | 150° |
| 2026-05-09 08:39 | 52.45303 | -1.73809 | 326 ft | 3 kts | 147° |
| 2026-05-09 08:39 | 52.45294 | -1.73800 | 324 ft | 0 kts | 146° |